createdAt,value
2018-05-01T00:01:37.964Z,15.50
2018-05-01T00:04:06.223Z,15.50
2018-05-01T00:06:35.237Z,15.20
2018-05-01T00:09:03.507Z,15.10
2018-05-01T00:11:31.810Z,15.30
2018-05-01T00:14:00.065Z,15.40
2018-05-01T00:16:28.324Z,15.40
2018-05-01T00:18:57.654Z,15.40
2018-05-01T00:21:26.002Z,15.30
2018-05-01T00:23:54.223Z,15.20
2018-05-01T00:26:22.489Z,15.10
2018-05-01T00:28:50.766Z,15.10
2018-05-01T00:31:19.095Z,15.00
2018-05-01T00:33:47.376Z,14.90
2018-05-01T00:36:16.465Z,15.00
2018-05-01T00:38:45.486Z,14.90
2018-05-01T00:41:13.749Z,14.90
2018-05-01T00:43:42.808Z,15.00
2018-05-01T00:46:11.162Z,15.00
2018-05-01T00:48:39.428Z,15.10
2018-05-01T00:51:07.710Z,14.90
2018-05-01T00:53:36.001Z,14.70
2018-05-01T00:56:04.296Z,14.80
2018-05-01T00:58:32.599Z,14.70
2018-05-01T01:01:00.902Z,14.70
2018-05-01T01:03:29.168Z,14.80
2018-05-01T01:05:57.441Z,14.80
2018-05-01T01:08:25.775Z,14.80
2018-05-01T01:10:54.023Z,14.80
2018-05-01T01:13:22.326Z,14.80
2018-05-01T01:15:50.606Z,14.80
2018-05-01T01:18:18.961Z,14.90
2018-05-01T01:20:47.815Z,14.90
2018-05-01T01:23:16.858Z,14.80
2018-05-01T01:25:45.160Z,14.80
2018-05-01T01:28:13.415Z,14.80
2018-05-01T01:30:42.614Z,14.60
2018-05-01T01:33:10.862Z,14.50
2018-05-01T01:35:38.614Z,14.50
2018-05-01T01:38:06.392Z,14.50
2018-05-01T01:40:34.745Z,14.60
2018-05-01T01:43:02.498Z,14.70
2018-05-01T01:45:31.043Z,14.80
2018-05-01T01:47:58.811Z,14.80
2018-05-01T01:50:26.590Z,14.80
2018-05-01T01:52:54.361Z,14.80
2018-05-01T01:55:22.131Z,14.90
2018-05-01T01:57:50.668Z,14.30
2018-05-01T02:00:18.463Z,14.30
2018-05-01T02:02:46.290Z,14.20
2018-05-01T02:05:14.134Z,14.20
2018-05-01T02:07:41.904Z,14.10
2018-05-01T02:10:09.663Z,13.80
2018-05-01T02:12:37.481Z,13.70
2018-05-01T02:15:05.243Z,13.70
2018-05-01T02:17:33.023Z,13.70
2018-05-01T02:20:00.798Z,13.80
2018-05-01T02:22:28.536Z,13.80
2018-05-01T02:24:56.306Z,13.80
2018-05-01T02:27:24.086Z,13.80
2018-05-01T02:29:52.024Z,13.70
2018-05-01T02:32:19.785Z,13.70
2018-05-01T02:34:47.566Z,13.50
2018-05-01T02:37:15.311Z,13.40
2018-05-01T02:39:43.093Z,13.40
2018-05-01T02:42:10.861Z,13.40
2018-05-01T02:44:38.643Z,13.40
2018-05-01T02:47:07.212Z,13.60
2018-05-01T02:49:34.983Z,13.50
2018-05-01T02:52:02.732Z,13.40
2018-05-01T02:54:30.513Z,13.50
2018-05-01T02:56:58.283Z,13.30
2018-05-01T02:59:26.828Z,13.20
2018-05-01T03:01:55.375Z,13.20
2018-05-01T03:04:23.162Z,13.20
2018-05-01T03:06:50.923Z,13.20
2018-05-01T03:09:18.695Z,13.30
2018-05-01T03:11:46.450Z,13.40
2018-05-01T03:14:14.327Z,13.50
2018-05-01T03:16:42.124Z,13.50
2018-05-01T03:19:09.874Z,13.50
2018-05-01T03:21:37.645Z,13.60
2018-05-01T03:24:05.446Z,13.60
2018-05-01T03:26:33.215Z,13.40
2018-05-01T03:29:00.981Z,13.50
2018-05-01T03:31:28.754Z,13.50
2018-05-01T03:33:56.538Z,13.50
2018-05-01T03:36:24.312Z,13.50
2018-05-01T03:38:52.142Z,13.50
2018-05-01T03:41:20.658Z,13.30
2018-05-01T03:43:48.433Z,13.30
2018-05-01T03:46:16.216Z,13.20
2018-05-01T03:48:44.012Z,13.10
2018-05-01T03:51:12.977Z,13.10
2018-05-01T03:53:40.759Z,13.10
2018-05-01T03:56:09.283Z,13.20
2018-05-01T03:58:37.061Z,13.20
2018-05-01T04:01:04.880Z,13.10
2018-05-01T04:03:32.699Z,13.00
2018-05-01T04:06:00.472Z,12.80
2018-05-01T04:08:28.252Z,12.90
2018-05-01T04:10:56.032Z,12.70
2018-05-01T04:13:23.805Z,12.80
2018-05-01T04:15:51.579Z,12.80
2018-05-01T04:18:19.402Z,12.80
2018-05-01T04:20:47.181Z,12.80
2018-05-01T04:23:14.954Z,12.90
2018-05-01T04:25:43.477Z,12.90
2018-05-01T04:28:11.255Z,12.90
2018-05-01T04:30:39.032Z,12.90
2018-05-01T04:33:06.815Z,12.90
2018-05-01T04:35:34.562Z,12.90
2018-05-01T04:38:02.352Z,12.90
2018-05-01T04:40:30.151Z,12.90
2018-05-01T04:42:57.948Z,12.90
2018-05-01T04:45:25.690Z,12.80
2018-05-01T04:47:54.304Z,12.90
2018-05-01T04:50:22.073Z,12.70
2018-05-01T04:52:49.853Z,12.60
2018-05-01T04:55:17.627Z,12.50
2018-05-01T04:57:45.430Z,12.60
2018-05-01T05:00:13.190Z,12.50
2018-05-01T05:02:40.966Z,12.40
2018-05-01T05:05:08.787Z,12.10
2018-05-01T05:07:37.327Z,12.20
2018-05-01T05:10:05.090Z,12.20
2018-05-01T05:12:32.865Z,12.30
2018-05-01T05:15:00.627Z,12.40
2018-05-01T05:17:28.378Z,12.40
2018-05-01T05:19:56.254Z,12.30
2018-05-01T05:22:24.006Z,12.30
2018-05-01T05:24:51.770Z,12.40
2018-05-01T05:27:19.548Z,12.20
2018-05-01T05:29:47.305Z,12.10
2018-05-01T05:32:15.101Z,12.10
2018-05-01T05:34:42.846Z,12.20
2018-05-01T05:37:10.681Z,12.00
2018-05-01T05:39:38.461Z,12.00
2018-05-01T05:42:06.285Z,12.10
2018-05-01T05:44:34.819Z,12.50
2018-05-01T05:47:02.590Z,12.40
2018-05-01T05:49:30.366Z,12.40
2018-05-01T05:51:58.146Z,12.50
2018-05-01T05:54:26.776Z,12.70
2018-05-01T05:56:54.478Z,12.70
2018-05-01T05:59:22.246Z,12.50
2018-05-01T06:01:50.022Z,12.50
2018-05-01T06:04:18.562Z,12.20
2018-05-01T06:06:46.325Z,12.10
2018-05-01T06:09:14.090Z,11.90
2018-05-01T06:11:41.871Z,12.00
2018-05-01T06:14:09.667Z,11.80
2018-05-01T06:16:37.423Z,11.80
2018-05-01T06:19:06.508Z,12.00
2018-05-01T06:21:34.298Z,12.00
2018-05-01T06:24:02.139Z,12.10
2018-05-01T06:26:29.920Z,12.10
2018-05-01T06:28:58.468Z,12.20
2018-05-01T06:31:26.230Z,12.20
2018-05-01T06:33:54.022Z,12.10
2018-05-01T06:36:21.783Z,12.20
2018-05-01T06:38:49.553Z,12.10
2018-05-01T06:41:17.330Z,12.10
2018-05-01T06:43:45.852Z,11.80
2018-05-01T06:46:13.613Z,11.80
2018-05-01T06:48:41.384Z,11.90
2018-05-01T06:51:09.160Z,11.90
2018-05-01T06:53:36.912Z,12.00
2018-05-01T06:56:04.736Z,11.90
2018-05-01T06:58:33.271Z,11.90
2018-05-01T07:01:01.023Z,11.90
2018-05-01T07:03:28.778Z,12.10
2018-05-01T07:05:56.719Z,12.10
2018-05-01T07:08:24.481Z,12.00
2018-05-01T07:10:53.030Z,11.90
2018-05-01T07:13:20.896Z,11.90
2018-05-01T07:15:48.726Z,11.90
2018-05-01T07:18:16.460Z,11.90
2018-05-01T07:20:45.006Z,12.00
2018-05-01T07:23:12.764Z,12.00
2018-05-01T07:25:40.529Z,12.20
2018-05-01T07:28:08.356Z,12.50
2018-05-01T07:30:37.055Z,12.50
2018-05-01T07:33:04.849Z,12.50
2018-05-01T07:35:32.674Z,12.60
2018-05-01T07:38:00.394Z,12.60
2018-05-01T07:40:28.179Z,12.80
2018-05-01T07:42:56.911Z,12.90
2018-05-01T07:45:24.670Z,12.90
2018-05-01T07:47:52.468Z,13.00
2018-05-01T07:50:20.214Z,13.30
2018-05-01T07:52:48.011Z,13.30
2018-05-01T07:55:15.780Z,13.20
2018-05-01T07:57:44.387Z,13.20
2018-05-01T08:00:12.175Z,13.20
2018-05-01T08:02:39.925Z,13.20
2018-05-01T08:05:08.699Z,13.30
2018-05-01T08:07:37.237Z,13.00
2018-05-01T08:10:05.045Z,13.00
2018-05-01T08:12:32.797Z,13.00
2018-05-01T08:15:00.579Z,13.20
2018-05-01T08:17:28.382Z,13.60
2018-05-01T08:19:56.123Z,13.60
2018-05-01T08:22:23.892Z,14.40
2018-05-01T08:24:51.674Z,14.70
2018-05-01T08:27:19.437Z,15.00
2018-05-01T08:29:47.257Z,15.00
2018-05-01T08:32:15.783Z,14.80
2018-05-01T08:34:43.587Z,14.80
2018-05-01T08:37:12.171Z,14.30
2018-05-01T08:39:39.943Z,14.30
2018-05-01T08:42:08.477Z,14.60
2018-05-01T08:44:36.296Z,14.60
2018-05-01T08:47:04.863Z,14.40
2018-05-01T08:49:32.638Z,14.40
2018-05-01T08:52:00.420Z,14.20
2018-05-01T08:54:29.137Z,13.80
2018-05-01T08:56:56.930Z,13.70
2018-05-01T08:59:24.702Z,13.50
2018-05-01T09:01:52.510Z,13.40
2018-05-01T09:04:20.299Z,13.40
2018-05-01T09:06:48.069Z,13.60
2018-05-01T09:09:15.840Z,13.90
2018-05-01T09:11:43.597Z,13.60
2018-05-01T09:14:12.271Z,13.90
2018-05-01T09:16:40.077Z,13.90
2018-05-01T09:19:07.864Z,14.00
2018-05-01T09:21:36.415Z,13.80
2018-05-01T09:24:04.199Z,13.80
2018-05-01T09:26:32.742Z,13.80
2018-05-01T09:29:00.532Z,13.80
2018-05-01T09:31:28.335Z,13.80
2018-05-01T09:33:56.104Z,13.90
2018-05-01T09:36:23.898Z,13.90
2018-05-01T09:38:51.656Z,14.10
2018-05-01T09:41:19.445Z,14.20
2018-05-01T09:43:47.359Z,14.30
2018-05-01T09:46:15.151Z,14.30
2018-05-01T09:48:42.923Z,14.10
2018-05-01T09:51:10.731Z,14.20
2018-05-01T09:53:39.839Z,14.20
2018-05-01T09:56:08.134Z,13.90
2018-05-01T09:58:36.424Z,14.20
2018-05-01T10:01:06.725Z,14.20
2018-05-01T10:03:35.010Z,14.10
2018-05-01T10:06:03.257Z,14.30
2018-05-01T10:08:32.358Z,14.40
2018-05-01T10:11:00.662Z,14.40
2018-05-01T10:13:28.921Z,14.10
2018-05-01T10:15:57.202Z,14.10
2018-05-01T10:18:26.233Z,14.00
2018-05-01T10:20:54.610Z,14.00
2018-05-01T10:23:22.933Z,13.70
2018-05-01T10:25:51.186Z,13.90
2018-05-01T10:28:19.450Z,14.20
2018-05-01T10:30:47.723Z,14.20
2018-05-01T10:33:16.043Z,14.30
2018-05-01T10:35:45.058Z,14.90
2018-05-01T10:38:13.481Z,14.80
2018-05-01T10:40:41.742Z,15.10
2018-05-01T10:43:10.099Z,15.10
2018-05-01T10:45:38.477Z,15.30
2018-05-01T10:48:06.757Z,15.40
2018-05-01T10:50:35.046Z,15.80
2018-05-01T10:53:03.384Z,15.80
2018-05-01T10:55:32.451Z,15.80
2018-05-01T10:58:00.731Z,15.60
2018-05-01T11:00:29.876Z,14.80
2018-05-01T11:02:58.142Z,15.10
2018-05-01T11:05:27.197Z,15.50
2018-05-01T11:07:55.486Z,15.90
2018-05-01T11:10:23.785Z,15.70
2018-05-01T11:12:52.079Z,15.60
2018-05-01T11:15:20.402Z,15.40
2018-05-01T11:17:48.675Z,15.20
2018-05-01T11:20:16.974Z,15.10
2018-05-01T11:22:45.214Z,15.00
2018-05-01T11:25:13.520Z,15.00
2018-05-01T11:27:41.799Z,14.90
2018-05-01T11:30:10.086Z,14.90
2018-05-01T11:32:38.325Z,15.00
2018-05-01T11:35:06.662Z,15.20
2018-05-01T11:37:35.037Z,15.20
2018-05-01T11:40:03.337Z,15.20
2018-05-01T11:42:31.618Z,15.40
2018-05-01T11:44:59.952Z,15.50
2018-05-01T11:47:28.181Z,15.50
2018-05-01T11:49:56.455Z,15.60
2018-05-01T11:52:24.739Z,15.60
2018-05-01T11:54:53.262Z,15.90
2018-05-01T11:57:22.306Z,15.80
2018-05-01T11:59:50.600Z,15.80
2018-05-01T12:02:18.981Z,15.80
2018-05-01T12:04:47.334Z,15.80
2018-05-01T12:07:15.599Z,16.00
2018-05-01T12:09:43.908Z,16.10
2018-05-01T12:12:12.181Z,16.30
2018-05-01T12:14:40.516Z,16.30
2018-05-01T12:17:08.768Z,16.40
2018-05-01T12:19:37.830Z,16.10
2018-05-01T12:22:06.098Z,16.10
2018-05-01T12:24:35.198Z,16.00
2018-05-01T12:27:03.507Z,16.10
2018-05-01T12:29:31.824Z,16.20
2018-05-01T12:32:00.158Z,16.20
2018-05-01T12:34:28.433Z,15.90
2018-05-01T12:36:58.514Z,16.00
2018-05-01T12:39:27.436Z,16.40
2018-05-01T12:41:55.830Z,16.40
2018-05-01T12:44:24.229Z,16.70
2018-05-01T12:46:52.535Z,16.60
2018-05-01T12:49:20.801Z,16.60
2018-05-01T12:51:49.139Z,16.80
2018-05-01T12:54:18.144Z,16.10
2018-05-01T12:56:47.351Z,16.20
2018-05-01T12:59:15.651Z,16.10
2018-05-01T13:01:43.947Z,16.20
2018-05-01T13:04:12.253Z,15.80
2018-05-01T13:06:40.563Z,15.80
2018-05-01T13:09:08.841Z,15.80
2018-05-01T13:11:37.068Z,15.60
2018-05-01T13:14:05.342Z,15.70
2018-05-01T13:16:33.604Z,15.70
2018-05-01T13:19:01.853Z,15.50
2018-05-01T13:21:31.599Z,15.50
2018-05-01T13:23:59.877Z,15.40
2018-05-01T13:26:28.155Z,15.50
2018-05-01T13:28:56.411Z,15.70
2018-05-01T13:31:24.673Z,16.00
2018-05-01T13:33:52.926Z,16.00
2018-05-01T13:36:21.991Z,15.70
2018-05-01T13:38:50.301Z,15.60
2018-05-01T13:41:19.318Z,15.30
2018-05-01T13:43:47.578Z,15.30
2018-05-01T13:46:15.849Z,15.50
2018-05-01T13:48:44.125Z,15.40
2018-05-01T13:51:12.414Z,15.50
2018-05-01T13:53:41.472Z,15.60
2018-05-01T13:56:11.801Z,15.70
2018-05-01T13:58:40.728Z,15.60
2018-05-01T14:01:08.999Z,15.60
2018-05-01T14:03:37.384Z,15.70
2018-05-01T14:06:05.801Z,15.90
2018-05-01T14:08:35.037Z,16.00
2018-05-01T14:11:03.438Z,15.80
2018-05-01T14:13:31.723Z,16.00
2018-05-01T14:16:00.113Z,15.90
2018-05-01T14:18:28.522Z,16.00
2018-05-01T14:20:56.792Z,16.00
2018-05-01T14:23:25.803Z,16.00
2018-05-01T14:25:54.096Z,15.90
2018-05-01T14:28:22.434Z,16.00
2018-05-01T14:30:50.754Z,16.10
2018-05-01T14:33:19.792Z,16.00
2018-05-01T14:35:48.120Z,15.90
2018-05-01T14:38:17.110Z,16.40
2018-05-01T14:40:47.036Z,16.40
2018-05-01T14:43:15.392Z,16.40
2018-05-01T14:45:43.697Z,16.20
2018-05-01T14:48:11.975Z,16.20
2018-05-01T14:50:40.221Z,16.30
2018-05-01T14:53:09.274Z,16.20
2018-05-01T14:55:37.531Z,16.20
2018-05-01T14:58:05.822Z,16.10
2018-05-01T15:00:34.283Z,16.20
2018-05-01T15:03:05.745Z,16.30
2018-05-01T15:05:34.008Z,16.30
2018-05-01T15:08:02.323Z,16.20
2018-05-01T15:10:31.519Z,16.20
2018-05-01T15:13:00.641Z,16.20
2018-05-01T15:15:29.803Z,16.10
2018-05-01T15:17:58.071Z,16.00
2018-05-01T15:20:26.390Z,16.10
2018-05-01T15:22:54.651Z,16.00
2018-05-01T15:25:22.940Z,15.90
2018-05-01T15:27:51.182Z,15.90
2018-05-01T15:30:19.461Z,15.80
2018-05-01T15:32:47.814Z,15.70
2018-05-01T15:35:16.073Z,15.70
2018-05-01T15:37:45.085Z,15.80
2018-05-01T15:40:13.351Z,15.80
2018-05-01T15:42:41.607Z,15.80
2018-05-01T15:45:10.784Z,15.80
2018-05-01T15:47:39.044Z,15.80
2018-05-01T15:50:07.421Z,15.70
2018-05-01T15:52:35.653Z,15.50
2018-05-01T15:55:03.947Z,15.50
2018-05-01T15:57:32.242Z,15.50
2018-05-01T16:00:00.874Z,15.50
2018-05-01T16:02:29.950Z,15.40
2018-05-01T16:04:58.207Z,15.40
2018-05-01T16:07:26.474Z,15.40
2018-05-01T16:09:54.731Z,15.50
2018-05-01T16:12:22.987Z,15.60
2018-05-01T16:14:52.060Z,15.70
2018-05-01T16:17:20.507Z,15.60
2018-05-01T16:19:48.774Z,15.60
2018-05-01T16:22:17.041Z,15.70
2018-05-01T16:24:45.350Z,15.80
2018-05-01T16:27:13.617Z,15.80
2018-05-01T16:29:41.988Z,15.80
2018-05-01T16:32:10.225Z,15.80
2018-05-01T16:34:38.502Z,15.80
2018-05-01T16:37:06.852Z,15.70
2018-05-01T16:39:35.897Z,15.70
2018-05-01T16:42:04.151Z,15.70
2018-05-01T16:44:32.462Z,15.80
2018-05-01T16:47:00.752Z,15.80
2018-05-01T16:49:29.001Z,15.80
2018-05-01T16:51:57.279Z,15.90
2018-05-01T16:54:25.526Z,15.80
2018-05-01T16:56:53.833Z,15.80
2018-05-01T16:59:22.065Z,15.80
2018-05-01T17:01:51.094Z,15.70
2018-05-01T17:04:19.422Z,15.70
2018-05-01T17:06:48.410Z,15.70
2018-05-01T17:09:16.722Z,15.70
2018-05-01T17:11:46.486Z,15.70
2018-05-01T17:14:14.776Z,15.70
2018-05-01T17:16:43.244Z,15.70
2018-05-01T17:19:11.707Z,15.60
2018-05-01T17:21:39.967Z,15.60
2018-05-01T17:24:08.220Z,15.50
2018-05-01T17:26:36.490Z,15.50
2018-05-01T17:29:04.791Z,15.60
2018-05-01T17:31:33.075Z,15.50
2018-05-01T17:34:01.359Z,15.40
2018-05-01T17:36:29.728Z,15.30
2018-05-01T17:38:58.184Z,15.30
2018-05-01T17:41:27.449Z,15.30
2018-05-01T17:43:55.774Z,15.30
2018-05-01T17:46:24.047Z,15.20
2018-05-01T17:48:52.352Z,15.20
2018-05-01T17:51:20.616Z,15.10
2018-05-01T17:53:48.880Z,15.00
2018-05-01T17:56:17.223Z,15.00
2018-05-01T17:58:46.272Z,15.00
2018-05-01T18:01:14.584Z,15.00
2018-05-01T18:03:42.946Z,15.00
2018-05-01T18:06:11.328Z,15.00
2018-05-01T18:08:39.718Z,15.00
2018-05-01T18:11:08.721Z,15.00
2018-05-01T18:13:37.032Z,15.00
2018-05-01T18:16:05.278Z,14.90
2018-05-01T18:18:35.044Z,14.80
2018-05-01T18:21:03.366Z,14.80
2018-05-01T18:23:31.620Z,14.80
2018-05-01T18:25:59.950Z,14.80
2018-05-01T18:28:28.234Z,14.80
2018-05-01T18:30:56.588Z,14.70
2018-05-01T18:33:24.818Z,14.70
2018-05-01T18:35:53.161Z,14.70
2018-05-01T18:38:21.431Z,14.60
2018-05-01T18:40:50.480Z,14.70
2018-05-01T18:43:18.758Z,14.70
2018-05-01T18:45:47.014Z,14.80
2018-05-01T18:48:15.353Z,14.80
2018-05-01T18:50:43.648Z,14.90
2018-05-01T18:53:11.901Z,14.90
2018-05-01T18:55:40.314Z,14.90
2018-05-01T18:58:08.602Z,14.90
2018-05-01T19:00:36.896Z,14.80
2018-05-01T19:03:05.145Z,14.80
2018-05-01T19:05:33.464Z,14.90
2018-05-01T19:08:02.500Z,14.90
2018-05-01T19:10:30.811Z,14.90
2018-05-01T19:12:59.163Z,14.90
2018-05-01T19:15:27.459Z,14.90
2018-05-01T19:17:55.728Z,14.80
2018-05-01T19:20:24.025Z,14.80
2018-05-01T19:22:52.305Z,14.80
2018-05-01T19:25:20.833Z,14.70
2018-05-01T19:27:51.868Z,14.60
2018-05-01T19:30:20.963Z,14.70
2018-05-01T19:32:49.267Z,14.60
2018-05-01T19:35:17.853Z,14.70
2018-05-01T19:37:47.321Z,14.70
2018-05-01T19:40:15.788Z,14.70
2018-05-01T19:42:44.925Z,14.60
2018-05-01T19:45:13.215Z,14.60
2018-05-01T19:47:41.567Z,14.50
2018-05-01T19:50:10.624Z,14.50
2018-05-01T19:52:38.978Z,14.50
2018-05-01T19:55:07.342Z,14.50
2018-05-01T19:57:36.348Z,14.40
2018-05-01T20:00:05.850Z,14.40
2018-05-01T20:02:34.544Z,14.40
2018-05-01T20:05:03.904Z,14.50
2018-05-01T20:07:33.333Z,14.40
2018-05-01T20:10:01.735Z,14.30
2018-05-01T20:12:29.974Z,14.30
2018-05-01T20:14:58.307Z,14.30
2018-05-01T20:17:27.867Z,14.30
2018-05-01T20:19:57.023Z,14.30
2018-05-01T20:22:25.501Z,14.20
2018-05-01T20:24:53.782Z,14.20
2018-05-01T20:27:22.117Z,14.10
2018-05-01T20:29:50.423Z,14.10
2018-05-01T20:32:18.684Z,14.10
2018-05-01T20:34:47.031Z,14.10
2018-05-01T20:37:15.356Z,14.20
2018-05-01T20:39:43.654Z,14.00
2018-05-01T20:42:13.609Z,13.90
2018-05-01T20:44:41.866Z,13.90
2018-05-01T20:47:10.158Z,13.80
2018-05-01T20:49:38.503Z,13.80
2018-05-01T20:52:06.757Z,13.70
2018-05-01T20:54:35.841Z,13.70
2018-05-01T20:57:04.104Z,13.70
2018-05-01T20:59:32.430Z,13.70
2018-05-01T21:02:02.119Z,13.60
2018-05-01T21:04:30.365Z,13.60
2018-05-01T21:06:58.660Z,13.60
2018-05-01T21:09:27.055Z,13.60
2018-05-01T21:11:56.078Z,13.60
2018-05-01T21:14:24.391Z,13.60
2018-05-01T21:16:52.709Z,13.60
2018-05-01T21:19:20.960Z,13.60
2018-05-01T21:21:49.221Z,13.60
2018-05-01T21:24:17.501Z,13.30
2018-05-01T21:26:46.566Z,12.90
2018-05-01T21:29:14.834Z,12.90
2018-05-01T21:31:44.148Z,12.90
2018-05-01T21:34:12.410Z,13.00
2018-05-01T21:36:40.692Z,12.80
2018-05-01T21:39:09.008Z,12.70
2018-05-01T21:41:37.372Z,12.70
2018-05-01T21:44:05.610Z,12.80
2018-05-01T21:46:33.902Z,12.80
2018-05-01T21:49:02.567Z,12.80
2018-05-01T21:51:30.846Z,12.80
2018-05-01T21:53:59.136Z,12.80
2018-05-01T21:56:27.527Z,12.60
2018-05-01T21:58:55.890Z,12.30
2018-05-01T22:01:24.248Z,12.30
2018-05-01T22:03:53.943Z,12.50
2018-05-01T22:06:22.218Z,12.50
2018-05-01T22:08:51.320Z,12.60
2018-05-01T22:11:19.847Z,12.60
2018-05-01T22:13:48.101Z,12.50
2018-05-01T22:16:16.508Z,12.20
2018-05-01T22:18:44.785Z,12.20
2018-05-01T22:21:13.057Z,12.30
2018-05-01T22:23:41.605Z,12.20
2018-05-01T22:26:09.886Z,12.30
2018-05-01T22:28:38.437Z,12.40
2018-05-01T22:31:06.846Z,12.40
2018-05-01T22:33:35.977Z,12.40
2018-05-01T22:36:04.251Z,12.40
2018-05-01T22:38:32.526Z,12.40
2018-05-01T22:41:00.816Z,12.30
2018-05-01T22:43:29.066Z,12.30
2018-05-01T22:45:57.331Z,12.40
2018-05-01T22:48:25.639Z,12.30
2018-05-01T22:50:53.885Z,12.30
2018-05-01T22:53:22.156Z,12.30
2018-05-01T22:55:50.418Z,12.20
2018-05-01T22:58:18.734Z,12.10
2018-05-01T23:00:47.026Z,11.90
2018-05-01T23:03:16.066Z,12.00
2018-05-01T23:05:45.114Z,12.10
2018-05-01T23:08:13.409Z,12.10
2018-05-01T23:10:41.692Z,12.20
2018-05-01T23:13:09.946Z,12.20
2018-05-01T23:15:38.378Z,12.20
2018-05-01T23:18:06.648Z,12.10
2018-05-01T23:20:34.938Z,12.20
2018-05-01T23:23:03.188Z,12.20
2018-05-01T23:25:32.207Z,12.10
2018-05-01T23:28:00.482Z,12.10
2018-05-01T23:30:28.816Z,12.00
2018-05-01T23:32:57.120Z,11.90
2018-05-01T23:35:25.396Z,12.00
2018-05-01T23:37:53.658Z,12.00
2018-05-01T23:40:21.913Z,12.10
2018-05-01T23:42:50.227Z,12.10
2018-05-01T23:45:18.533Z,12.00
2018-05-01T23:47:46.839Z,12.00
2018-05-01T23:50:15.119Z,12.00
2018-05-01T23:52:43.399Z,11.90
2018-05-01T23:55:11.664Z,11.80
2018-05-01T23:57:40.089Z,12.00
